sensor_id;sensor_type;location;lat;lon;timestamp;P1;durP1;ratioP1;P2;durP2;ratioP2
16101;SDS011;56411;52.964;10.540;2024-02-14T00:00:30;8.37;;;3.60;;
16101;SDS011;56411;52.964;10.540;2024-02-14T00:03:13;8.60;;;3.83;;
16101;SDS011;56411;52.964;10.540;2024-02-14T00:05:44;7.77;;;3.60;;
16101;SDS011;56411;52.964;10.540;2024-02-14T00:08:15;9.20;;;3.90;;
16101;SDS011;56411;52.964;10.540;2024-02-14T00:11:08;8.23;;;3.50;;
16101;SDS011;56411;52.964;10.540;2024-02-14T00:13:36;10.27;;;3.67;;
16101;SDS011;56411;52.964;10.540;2024-02-14T00:16:19;8.87;;;3.70;;
16101;SDS011;56411;52.964;10.540;2024-02-14T00:19:04;9.33;;;3.50;;
16101;SDS011;56411;52.964;10.540;2024-02-14T00:21:33;8.57;;;3.57;;
16101;SDS011;56411;52.964;10.540;2024-02-14T00:24:05;9.47;;;3.77;;
16101;SDS011;56411;52.964;10.540;2024-02-14T00:26:34;9.83;;;3.80;;
16101;SDS011;56411;52.964;10.540;2024-02-14T00:29:04;7.80;;;3.70;;
16101;SDS011;56411;52.964;10.540;2024-02-14T00:31:33;9.00;;;3.60;;
16101;SDS011;56411;52.964;10.540;2024-02-14T00:34:01;9.93;;;3.90;;
16101;SDS011;56411;52.964;10.540;2024-02-14T00:36:28;8.73;;;3.73;;
16101;SDS011;56411;52.964;10.540;2024-02-14T00:38:56;9.57;;;3.70;;
16101;SDS011;56411;52.964;10.540;2024-02-14T00:41:26;8.03;;;3.37;;
16101;SDS011;56411;52.964;10.540;2024-02-14T00:44:05;9.57;;;3.63;;
16101;SDS011;56411;52.964;10.540;2024-02-14T00:46:34;7.27;;;3.40;;
16101;SDS011;56411;52.964;10.540;2024-02-14T00:49:02;8.67;;;3.47;;
16101;SDS011;56411;52.964;10.540;2024-02-14T00:51:31;7.47;;;3.47;;
16101;SDS011;56411;52.964;10.540;2024-02-14T00:54:00;11.27;;;3.73;;
16101;SDS011;56411;52.964;10.540;2024-02-14T00:56:32;8.37;;;3.37;;
16101;SDS011;56411;52.964;10.540;2024-02-14T00:59:01;8.53;;;3.30;;
16101;SDS011;56411;52.964;10.540;2024-02-14T01:01:55;9.50;;;3.33;;
16101;SDS011;56411;52.964;10.540;2024-02-14T01:04:25;8.27;;;3.30;;
16101;SDS011;56411;52.964;10.540;2024-02-14T01:06:52;8.83;;;3.50;;
16101;SDS011;56411;52.964;10.540;2024-02-14T01:09:30;8.10;;;3.37;;
16101;SDS011;56411;52.964;10.540;2024-02-14T01:12:00;7.23;;;3.20;;
16101;SDS011;56411;52.964;10.540;2024-02-14T01:14:29;7.53;;;3.10;;
16101;SDS011;56411;52.964;10.540;2024-02-14T01:16:58;9.50;;;3.50;;
16101;SDS011;56411;52.964;10.540;2024-02-14T01:19:26;9.47;;;3.40;;
16101;SDS011;56411;52.964;10.540;2024-02-14T01:21:55;7.93;;;3.20;;
16101;SDS011;56411;52.964;10.540;2024-02-14T01:24:38;9.73;;;3.50;;
16101;SDS011;56411;52.964;10.540;2024-02-14T01:27:09;7.27;;;3.20;;
16101;SDS011;56411;52.964;10.540;2024-02-14T01:29:37;8.13;;;3.40;;
16101;SDS011;56411;52.964;10.540;2024-02-14T01:32:20;9.07;;;3.87;;
16101;SDS011;56411;52.964;10.540;2024-02-14T01:34:58;8.97;;;3.43;;
16101;SDS011;56411;52.964;10.540;2024-02-14T01:37:27;8.63;;;3.30;;
16101;SDS011;56411;52.964;10.540;2024-02-14T01:40:10;7.97;;;3.30;;
16101;SDS011;56411;52.964;10.540;2024-02-14T01:42:40;8.97;;;3.87;;
16101;SDS011;56411;52.964;10.540;2024-02-14T01:45:10;7.47;;;3.40;;
16101;SDS011;56411;52.964;10.540;2024-02-14T01:47:39;8.93;;;3.57;;
16101;SDS011;56411;52.964;10.540;2024-02-14T01:50:08;10.30;;;3.57;;
16101;SDS011;56411;52.964;10.540;2024-02-14T01:52:39;9.20;;;4.17;;
16101;SDS011;56411;52.964;10.540;2024-02-14T01:55:09;9.30;;;3.87;;
16101;SDS011;56411;52.964;10.540;2024-02-14T01:57:42;8.93;;;3.93;;
16101;SDS011;56411;52.964;10.540;2024-02-14T02:00:12;10.67;;;3.93;;
16101;SDS011;56411;52.964;10.540;2024-02-14T02:02:43;10.63;;;4.00;;
16101;SDS011;56411;52.964;10.540;2024-02-14T02:05:14;8.63;;;3.77;;
16101;SDS011;56411;52.964;10.540;2024-02-14T02:07:57;10.60;;;4.20;;
16101;SDS011;56411;52.964;10.540;2024-02-14T02:10:27;10.63;;;4.23;;
16101;SDS011;56411;52.964;10.540;2024-02-14T02:13:00;10.70;;;4.30;;
16101;SDS011;56411;52.964;10.540;2024-02-14T02:15:28;11.13;;;4.57;;
16101;SDS011;56411;52.964;10.540;2024-02-14T02:17:57;9.60;;;4.37;;
16101;SDS011;56411;52.964;10.540;2024-02-14T02:20:28;11.70;;;4.10;;
16101;SDS011;56411;52.964;10.540;2024-02-14T02:22:59;14.57;;;4.43;;
16101;SDS011;56411;52.964;10.540;2024-02-14T02:25:27;9.70;;;4.00;;
16101;SDS011;56411;52.964;10.540;2024-02-14T02:27:55;10.30;;;4.00;;
16101;SDS011;56411;52.964;10.540;2024-02-14T02:30:24;8.93;;;3.67;;
16101;SDS011;56411;52.964;10.540;2024-02-14T02:32:52;9.90;;;4.03;;
16101;SDS011;56411;52.964;10.540;2024-02-14T02:35:35;10.50;;;3.83;;
16101;SDS011;56411;52.964;10.540;2024-02-14T02:38:15;8.77;;;3.90;;
16101;SDS011;56411;52.964;10.540;2024-02-14T02:40:45;10.07;;;3.90;;
16101;SDS011;56411;52.964;10.540;2024-02-14T02:43:27;8.00;;;3.70;;
16101;SDS011;56411;52.964;10.540;2024-02-14T02:45:58;9.17;;;4.13;;
16101;SDS011;56411;52.964;10.540;2024-02-14T02:48:41;9.57;;;3.87;;
16101;SDS011;56411;52.964;10.540;2024-02-14T02:51:10;9.43;;;3.87;;
16101;SDS011;56411;52.964;10.540;2024-02-14T02:53:41;7.67;;;3.40;;
16101;SDS011;56411;52.964;10.540;2024-02-14T02:56:28;10.10;;;4.47;;
16101;SDS011;56411;52.964;10.540;2024-02-14T02:59:07;10.07;;;4.27;;
16101;SDS011;56411;52.964;10.540;2024-02-14T03:01:38;8.90;;;3.60;;
16101;SDS011;56411;52.964;10.540;2024-02-14T03:04:14;10.57;;;4.13;;
16101;SDS011;56411;52.964;10.540;2024-02-14T03:06:48;10.00;;;4.10;;
16101;SDS011;56411;52.964;10.540;2024-02-14T03:09:32;7.97;;;3.60;;
16101;SDS011;56411;52.964;10.540;2024-02-14T03:12:16;8.37;;;3.70;;
16101;SDS011;56411;52.964;10.540;2024-02-14T03:14:58;8.77;;;3.70;;
16101;SDS011;56411;52.964;10.540;2024-02-14T03:17:41;9.27;;;4.03;;
16101;SDS011;56411;52.964;10.540;2024-02-14T03:20:10;9.23;;;4.20;;
16101;SDS011;56411;52.964;10.540;2024-02-14T03:22:41;9.57;;;4.00;;
16101;SDS011;56411;52.964;10.540;2024-02-14T03:25:16;8.70;;;3.83;;
16101;SDS011;56411;52.964;10.540;2024-02-14T03:28:16;9.83;;;3.90;;
16101;SDS011;56411;52.964;10.540;2024-02-14T03:30:48;9.70;;;4.10;;
16101;SDS011;56411;52.964;10.540;2024-02-14T03:33:31;8.50;;;3.83;;
16101;SDS011;56411;52.964;10.540;2024-02-14T03:35:59;8.30;;;3.67;;
16101;SDS011;56411;52.964;10.540;2024-02-14T03:38:26;9.00;;;4.03;;
16101;SDS011;56411;52.964;10.540;2024-02-14T03:40:56;9.03;;;4.13;;
16101;SDS011;56411;52.964;10.540;2024-02-14T03:43:23;10.30;;;3.70;;
16101;SDS011;56411;52.964;10.540;2024-02-14T03:45:51;10.13;;;4.40;;
16101;SDS011;56411;52.964;10.540;2024-02-14T03:48:17;10.43;;;4.40;;
16101;SDS011;56411;52.964;10.540;2024-02-14T03:50:44;11.27;;;4.50;;
16101;SDS011;56411;52.964;10.540;2024-02-14T03:53:11;10.17;;;4.30;;
16101;SDS011;56411;52.964;10.540;2024-02-14T03:55:39;9.20;;;4.07;;
16101;SDS011;56411;52.964;10.540;2024-02-14T03:58:10;12.63;;;4.83;;
16101;SDS011;56411;52.964;10.540;2024-02-14T04:00:40;11.83;;;4.77;;
16101;SDS011;56411;52.964;10.540;2024-02-14T04:03:11;10.23;;;4.40;;
16101;SDS011;56411;52.964;10.540;2024-02-14T04:05:38;10.23;;;4.40;;
16101;SDS011;56411;52.964;10.540;2024-02-14T04:08:06;8.73;;;4.07;;
16101;SDS011;56411;52.964;10.540;2024-02-14T04:10:35;12.37;;;4.60;;
16101;SDS011;56411;52.964;10.540;2024-02-14T04:13:03;12.87;;;4.70;;
16101;SDS011;56411;52.964;10.540;2024-02-14T04:15:32;11.30;;;4.73;;
16101;SDS011;56411;52.964;10.540;2024-02-14T04:18:01;11.23;;;4.50;;
16101;SDS011;56411;52.964;10.540;2024-02-14T04:20:31;10.37;;;4.40;;
16101;SDS011;56411;52.964;10.540;2024-02-14T04:22:58;10.53;;;4.60;;
16101;SDS011;56411;52.964;10.540;2024-02-14T04:25:25;10.87;;;4.80;;
16101;SDS011;56411;52.964;10.540;2024-02-14T04:28:04;11.07;;;4.60;;
16101;SDS011;56411;52.964;10.540;2024-02-14T04:30:33;11.63;;;4.93;;
16101;SDS011;56411;52.964;10.540;2024-02-14T04:33:01;11.53;;;4.50;;
16101;SDS011;56411;52.964;10.540;2024-02-14T04:35:29;11.57;;;4.80;;
16101;SDS011;56411;52.964;10.540;2024-02-14T04:37:59;11.20;;;4.50;;
16101;SDS011;56411;52.964;10.540;2024-02-14T04:40:26;13.13;;;5.43;;
16101;SDS011;56411;52.964;10.540;2024-02-14T04:42:54;11.90;;;5.33;;
16101;SDS011;56411;52.964;10.540;2024-02-14T04:45:22;12.97;;;5.17;;
16101;SDS011;56411;52.964;10.540;2024-02-14T04:47:53;12.07;;;5.30;;
16101;SDS011;56411;52.964;10.540;2024-02-14T04:50:21;12.77;;;5.10;;
16101;SDS011;56411;52.964;10.540;2024-02-14T04:52:49;11.57;;;4.90;;
16101;SDS011;56411;52.964;10.540;2024-02-14T04:55:18;10.67;;;4.87;;
16101;SDS011;56411;52.964;10.540;2024-02-14T04:57:45;13.03;;;5.53;;
16101;SDS011;56411;52.964;10.540;2024-02-14T05:00:14;14.90;;;5.50;;
16101;SDS011;56411;52.964;10.540;2024-02-14T05:02:42;12.10;;;5.37;;
16101;SDS011;56411;52.964;10.540;2024-02-14T05:05:11;12.50;;;5.70;;
16101;SDS011;56411;52.964;10.540;2024-02-14T05:07:39;13.77;;;5.90;;
16101;SDS011;56411;52.964;10.540;2024-02-14T05:10:09;13.27;;;6.20;;
16101;SDS011;56411;52.964;10.540;2024-02-14T05:12:36;15.33;;;5.97;;
16101;SDS011;56411;52.964;10.540;2024-02-14T05:15:04;15.23;;;6.67;;
16101;SDS011;56411;52.964;10.540;2024-02-14T05:17:32;12.53;;;6.57;;
16101;SDS011;56411;52.964;10.540;2024-02-14T05:19:59;14.07;;;6.27;;
16101;SDS011;56411;52.964;10.540;2024-02-14T05:22:29;12.63;;;6.00;;
16101;SDS011;56411;52.964;10.540;2024-02-14T05:24:56;14.63;;;6.73;;
16101;SDS011;56411;52.964;10.540;2024-02-14T05:27:24;14.40;;;6.63;;
16101;SDS011;56411;52.964;10.540;2024-02-14T05:29:52;14.97;;;6.70;;
16101;SDS011;56411;52.964;10.540;2024-02-14T05:32:19;13.13;;;6.23;;
16101;SDS011;56411;52.964;10.540;2024-02-14T05:34:46;13.43;;;6.70;;
16101;SDS011;56411;52.964;10.540;2024-02-14T05:37:13;14.63;;;6.57;;
16101;SDS011;56411;52.964;10.540;2024-02-14T05:39:42;13.63;;;6.87;;
16101;SDS011;56411;52.964;10.540;2024-02-14T05:42:09;13.50;;;6.87;;
16101;SDS011;56411;52.964;10.540;2024-02-14T05:44:37;13.87;;;6.93;;
16101;SDS011;56411;52.964;10.540;2024-02-14T05:47:05;15.83;;;7.33;;
16101;SDS011;56411;52.964;10.540;2024-02-14T05:49:32;14.93;;;7.27;;
16101;SDS011;56411;52.964;10.540;2024-02-14T05:51:59;15.33;;;7.67;;
16101;SDS011;56411;52.964;10.540;2024-02-14T05:54:27;16.70;;;7.50;;
16101;SDS011;56411;52.964;10.540;2024-02-14T05:56:55;15.77;;;7.67;;
16101;SDS011;56411;52.964;10.540;2024-02-14T05:59:23;15.73;;;7.60;;
16101;SDS011;56411;52.964;10.540;2024-02-14T06:01:50;14.77;;;7.33;;
16101;SDS011;56411;52.964;10.540;2024-02-14T06:04:18;17.37;;;7.70;;
16101;SDS011;56411;52.964;10.540;2024-02-14T06:06:45;13.33;;;7.23;;
16101;SDS011;56411;52.964;10.540;2024-02-14T06:09:12;16.17;;;7.93;;
16101;SDS011;56411;52.964;10.540;2024-02-14T06:11:39;15.13;;;7.50;;
16101;SDS011;56411;52.964;10.540;2024-02-14T06:14:09;14.67;;;7.37;;
16101;SDS011;56411;52.964;10.540;2024-02-14T06:16:36;16.17;;;7.90;;
16101;SDS011;56411;52.964;10.540;2024-02-14T06:19:03;14.90;;;7.63;;
16101;SDS011;56411;52.964;10.540;2024-02-14T06:21:31;18.37;;;8.00;;
16101;SDS011;56411;52.964;10.540;2024-02-14T06:23:59;17.40;;;8.03;;
16101;SDS011;56411;52.964;10.540;2024-02-14T06:26:28;17.10;;;7.67;;
16101;SDS011;56411;52.964;10.540;2024-02-14T06:28:56;15.63;;;7.77;;
16101;SDS011;56411;52.964;10.540;2024-02-14T06:31:24;15.07;;;7.53;;
16101;SDS011;56411;52.964;10.540;2024-02-14T06:33:52;14.47;;;7.30;;
16101;SDS011;56411;52.964;10.540;2024-02-14T06:36:20;16.30;;;7.33;;
16101;SDS011;56411;52.964;10.540;2024-02-14T06:38:47;13.90;;;7.23;;
16101;SDS011;56411;52.964;10.540;2024-02-14T06:41:16;16.03;;;7.53;;
16101;SDS011;56411;52.964;10.540;2024-02-14T06:43:45;16.73;;;7.80;;
16101;SDS011;56411;52.964;10.540;2024-02-14T06:46:12;15.07;;;7.40;;
16101;SDS011;56411;52.964;10.540;2024-02-14T06:48:41;14.63;;;7.57;;
16101;SDS011;56411;52.964;10.540;2024-02-14T06:51:08;16.17;;;7.97;;
16101;SDS011;56411;52.964;10.540;2024-02-14T06:53:38;15.90;;;7.60;;
16101;SDS011;56411;52.964;10.540;2024-02-14T06:56:06;15.87;;;7.43;;
16101;SDS011;56411;52.964;10.540;2024-02-14T06:58:35;17.00;;;8.00;;
16101;SDS011;56411;52.964;10.540;2024-02-14T07:01:02;16.50;;;7.70;;
16101;SDS011;56411;52.964;10.540;2024-02-14T07:03:30;15.63;;;8.13;;
16101;SDS011;56411;52.964;10.540;2024-02-14T07:05:59;17.03;;;7.53;;
16101;SDS011;56411;52.964;10.540;2024-02-14T07:08:26;13.40;;;7.13;;
16101;SDS011;56411;52.964;10.540;2024-02-14T07:10:54;13.63;;;7.70;;
16101;SDS011;56411;52.964;10.540;2024-02-14T07:13:21;14.27;;;7.30;;
16101;SDS011;56411;52.964;10.540;2024-02-14T07:15:48;16.43;;;6.80;;
16101;SDS011;56411;52.964;10.540;2024-02-14T07:18:16;15.13;;;7.73;;
16101;SDS011;56411;52.964;10.540;2024-02-14T07:20:43;14.23;;;7.17;;
16101;SDS011;56411;52.964;10.540;2024-02-14T07:23:13;15.57;;;7.93;;
16101;SDS011;56411;52.964;10.540;2024-02-14T07:25:40;14.77;;;7.80;;
16101;SDS011;56411;52.964;10.540;2024-02-14T07:28:08;14.17;;;7.53;;
16101;SDS011;56411;52.964;10.540;2024-02-14T07:30:36;14.17;;;7.70;;
16101;SDS011;56411;52.964;10.540;2024-02-14T07:33:03;14.77;;;8.10;;
16101;SDS011;56411;52.964;10.540;2024-02-14T07:35:31;16.80;;;10.20;;
16101;SDS011;56411;52.964;10.540;2024-02-14T07:37:58;14.93;;;7.83;;
16101;SDS011;56411;52.964;10.540;2024-02-14T07:40:26;16.50;;;9.82;;
16101;SDS011;56411;52.964;10.540;2024-02-14T07:42:56;15.13;;;8.27;;
16101;SDS011;56411;52.964;10.540;2024-02-14T07:45:23;15.47;;;7.73;;
16101;SDS011;56411;52.964;10.540;2024-02-14T07:47:50;16.00;;;7.40;;
16101;SDS011;56411;52.964;10.540;2024-02-14T07:50:17;15.17;;;7.30;;
16101;SDS011;56411;52.964;10.540;2024-02-14T07:52:45;14.57;;;7.30;;
16101;SDS011;56411;52.964;10.540;2024-02-14T07:55:13;14.20;;;6.87;;
16101;SDS011;56411;52.964;10.540;2024-02-14T07:57:42;14.23;;;7.23;;
16101;SDS011;56411;52.964;10.540;2024-02-14T08:00:11;14.73;;;7.20;;
16101;SDS011;56411;52.964;10.540;2024-02-14T08:02:44;14.30;;;7.60;;
16101;SDS011;56411;52.964;10.540;2024-02-14T08:05:11;15.47;;;7.37;;
16101;SDS011;56411;52.964;10.540;2024-02-14T08:07:38;13.40;;;6.57;;
16101;SDS011;56411;52.964;10.540;2024-02-14T08:10:06;14.07;;;6.33;;
16101;SDS011;56411;52.964;10.540;2024-02-14T08:12:34;13.13;;;6.40;;
16101;SDS011;56411;52.964;10.540;2024-02-14T08:15:04;13.37;;;6.43;;
16101;SDS011;56411;52.964;10.540;2024-02-14T08:17:32;11.47;;;5.93;;
16101;SDS011;56411;52.964;10.540;2024-02-14T08:20:12;12.43;;;6.40;;
16101;SDS011;56411;52.964;10.540;2024-02-14T08:22:39;12.60;;;6.57;;
16101;SDS011;56411;52.964;10.540;2024-02-14T08:25:09;11.87;;;6.00;;
16101;SDS011;56411;52.964;10.540;2024-02-14T08:27:41;12.10;;;6.30;;
16101;SDS011;56411;52.964;10.540;2024-02-14T09:44:14;10.60;;;5.33;;
16101;SDS011;56411;52.964;10.540;2024-02-14T10:03:54;10.73;;;5.53;;
16101;SDS011;56411;52.964;10.540;2024-02-14T10:06:55;10.73;;;5.00;;
16101;SDS011;56411;52.964;10.540;2024-02-14T10:26:37;11.40;;;5.20;;
16101;SDS011;56411;52.964;10.540;2024-02-14T10:29:34;11.30;;;5.70;;
16101;SDS011;56411;52.964;10.540;2024-02-14T12:12:40;23.70;;;13.57;;
16101;SDS011;56411;52.964;10.540;2024-02-14T12:15:09;22.00;;;13.38;;
16101;SDS011;56411;52.964;10.540;2024-02-14T12:17:45;21.33;;;12.73;;
16101;SDS011;56411;52.964;10.540;2024-02-14T12:20:33;21.88;;;12.75;;
16101;SDS011;56411;52.964;10.540;2024-02-14T12:23:46;21.47;;;12.70;;
16101;SDS011;56411;52.964;10.540;2024-02-14T12:29:27;19.73;;;12.53;;
16101;SDS011;56411;52.964;10.540;2024-02-14T12:32:02;19.77;;;11.40;;
16101;SDS011;56411;52.964;10.540;2024-02-14T12:34:55;20.40;;;11.77;;
16101;SDS011;56411;52.964;10.540;2024-02-14T12:37:31;19.35;;;12.02;;
16101;SDS011;56411;52.964;10.540;2024-02-14T12:40:13;19.50;;;11.83;;
16101;SDS011;56411;52.964;10.540;2024-02-14T12:42:44;18.97;;;11.93;;
16101;SDS011;56411;52.964;10.540;2024-02-14T12:45:32;19.60;;;11.82;;
16101;SDS011;56411;52.964;10.540;2024-02-14T12:48:00;18.17;;;11.23;;
16101;SDS011;56411;52.964;10.540;2024-02-14T12:50:29;18.25;;;11.77;;
16101;SDS011;56411;52.964;10.540;2024-02-14T12:53:00;20.35;;;12.35;;
16101;SDS011;56411;52.964;10.540;2024-02-14T12:56:20;21.67;;;13.60;;
16101;SDS011;56411;52.964;10.540;2024-02-14T12:59:00;19.73;;;11.80;;
16101;SDS011;56411;52.964;10.540;2024-02-14T13:01:29;20.27;;;12.60;;
16101;SDS011;56411;52.964;10.540;2024-02-14T13:03:57;20.37;;;12.73;;
16101;SDS011;56411;52.964;10.540;2024-02-14T13:06:24;20.50;;;13.20;;
16101;SDS011;56411;52.964;10.540;2024-02-14T13:08:52;21.13;;;13.70;;
16101;SDS011;56411;52.964;10.540;2024-02-14T13:11:29;21.57;;;13.40;;
16101;SDS011;56411;52.964;10.540;2024-02-14T13:13:58;21.57;;;13.60;;
16101;SDS011;56411;52.964;10.540;2024-02-14T13:16:32;22.38;;;14.82;;
16101;SDS011;56411;52.964;10.540;2024-02-14T13:18:59;23.93;;;15.57;;
16101;SDS011;56411;52.964;10.540;2024-02-14T13:21:28;23.43;;;15.07;;
16101;SDS011;56411;52.964;10.540;2024-02-14T13:23:58;23.13;;;15.40;;
16101;SDS011;56411;52.964;10.540;2024-02-14T13:26:26;23.23;;;15.47;;
16101;SDS011;56411;52.964;10.540;2024-02-14T13:28:53;22.83;;;15.27;;
16101;SDS011;56411;52.964;10.540;2024-02-14T13:31:21;22.43;;;14.77;;
16101;SDS011;56411;52.964;10.540;2024-02-14T13:33:52;24.43;;;15.33;;
16101;SDS011;56411;52.964;10.540;2024-02-14T13:39:32;22.90;;;15.13;;
16101;SDS011;56411;52.964;10.540;2024-02-14T13:42:02;24.63;;;15.15;;
16101;SDS011;56411;52.964;10.540;2024-02-14T13:45:03;23.30;;;14.93;;
16101;SDS011;56411;52.964;10.540;2024-02-14T13:47:43;24.77;;;15.13;;
16101;SDS011;56411;52.964;10.540;2024-02-14T13:50:24;24.63;;;15.52;;
16101;SDS011;56411;52.964;10.540;2024-02-14T13:53:10;22.47;;;14.80;;
16101;SDS011;56411;52.964;10.540;2024-02-14T13:55:52;24.43;;;15.47;;
16101;SDS011;56411;52.964;10.540;2024-02-14T13:58:26;24.50;;;16.00;;
16101;SDS011;56411;52.964;10.540;2024-02-14T14:04:04;22.73;;;14.47;;
16101;SDS011;56411;52.964;10.540;2024-02-14T14:06:36;26.70;;;16.90;;
16101;SDS011;56411;52.964;10.540;2024-02-14T14:09:04;23.53;;;15.50;;
16101;SDS011;56411;52.964;10.540;2024-02-14T14:11:39;24.77;;;15.63;;
16101;SDS011;56411;52.964;10.540;2024-02-14T14:21:01;23.38;;;13.98;;
16101;SDS011;56411;52.964;10.540;2024-02-14T14:34:34;24.67;;;16.20;;
16101;SDS011;56411;52.964;10.540;2024-02-14T14:37:10;24.23;;;15.43;;
16101;SDS011;56411;52.964;10.540;2024-02-14T14:46:08;25.70;;;14.93;;
16101;SDS011;56411;52.964;10.540;2024-02-14T14:52:23;25.40;;;16.10;;
16101;SDS011;56411;52.964;10.540;2024-02-14T15:01:00;25.88;;;17.15;;
16101;SDS011;56411;52.964;10.540;2024-02-14T15:03:45;27.43;;;16.90;;
16101;SDS011;56411;52.964;10.540;2024-02-14T15:06:15;27.73;;;17.95;;
16101;SDS011;56411;52.964;10.540;2024-02-14T15:12:29;26.20;;;17.30;;
16101;SDS011;56411;52.964;10.540;2024-02-14T15:15:00;25.55;;;16.48;;
16101;SDS011;56411;52.964;10.540;2024-02-14T15:17:37;27.03;;;17.13;;
16101;SDS011;56411;52.964;10.540;2024-02-14T15:20:07;26.17;;;17.10;;
16101;SDS011;56411;52.964;10.540;2024-02-14T15:22:35;24.95;;;16.27;;
16101;SDS011;56411;52.964;10.540;2024-02-14T15:25:02;26.93;;;16.43;;
16101;SDS011;56411;52.964;10.540;2024-02-14T15:27:39;25.90;;;16.33;;
16101;SDS011;56411;52.964;10.540;2024-02-14T15:30:22;24.77;;;15.97;;
16101;SDS011;56411;52.964;10.540;2024-02-14T15:33:10;25.73;;;17.17;;
16101;SDS011;56411;52.964;10.540;2024-02-14T15:36:19;27.33;;;17.10;;
16101;SDS011;56411;52.964;10.540;2024-02-14T15:38:46;26.60;;;16.93;;
16101;SDS011;56411;52.964;10.540;2024-02-14T15:41:17;27.57;;;17.70;;
16101;SDS011;56411;52.964;10.540;2024-02-14T15:43:47;30.07;;;17.83;;
16101;SDS011;56411;52.964;10.540;2024-02-14T15:46:17;28.57;;;17.37;;
16101;SDS011;56411;52.964;10.540;2024-02-14T15:48:45;27.58;;;18.55;;
16101;SDS011;56411;52.964;10.540;2024-02-14T15:51:12;27.83;;;17.75;;
16101;SDS011;56411;52.964;10.540;2024-02-14T15:53:42;28.67;;;18.25;;
16101;SDS011;56411;52.964;10.540;2024-02-14T15:56:09;27.83;;;17.88;;
16101;SDS011;56411;52.964;10.540;2024-02-14T15:58:38;26.05;;;17.30;;
16101;SDS011;56411;52.964;10.540;2024-02-14T16:01:07;26.58;;;16.55;;
16101;SDS011;56411;52.964;10.540;2024-02-14T16:03:34;26.48;;;15.98;;
16101;SDS011;56411;52.964;10.540;2024-02-14T16:06:01;26.80;;;18.40;;
16101;SDS011;56411;52.964;10.540;2024-02-14T16:08:29;26.63;;;17.40;;
16101;SDS011;56411;52.964;10.540;2024-02-14T16:10:56;24.35;;;16.70;;
16101;SDS011;56411;52.964;10.540;2024-02-14T16:13:24;27.13;;;18.20;;
16101;SDS011;56411;52.964;10.540;2024-02-14T16:15:52;26.83;;;18.37;;
16101;SDS011;56411;52.964;10.540;2024-02-14T16:18:21;27.40;;;17.97;;
16101;SDS011;56411;52.964;10.540;2024-02-14T16:21:03;28.05;;;18.20;;
16101;SDS011;56411;52.964;10.540;2024-02-14T16:23:59;31.10;;;20.57;;
16101;SDS011;56411;52.964;10.540;2024-02-14T16:30:14;77.03;;;39.55;;
16101;SDS011;56411;52.964;10.540;2024-02-14T16:32:45;33.13;;;20.08;;
16101;SDS011;56411;52.964;10.540;2024-02-14T16:56:29;30.73;;;18.60;;
16101;SDS011;56411;52.964;10.540;2024-02-14T16:59:35;32.67;;;20.30;;
16101;SDS011;56411;52.964;10.540;2024-02-14T17:02:35;30.13;;;18.27;;
16101;SDS011;56411;52.964;10.540;2024-02-14T17:05:42;31.65;;;18.58;;
16101;SDS011;56411;52.964;10.540;2024-02-14T17:08:41;30.45;;;17.92;;
16101;SDS011;56411;52.964;10.540;2024-02-14T17:12:01;32.20;;;18.53;;
16101;SDS011;56411;52.964;10.540;2024-02-14T17:14:55;29.95;;;17.92;;
16101;SDS011;56411;52.964;10.540;2024-02-14T17:18:04;31.88;;;18.70;;
16101;SDS011;56411;52.964;10.540;2024-02-14T17:21:19;31.00;;;17.63;;
16101;SDS011;56411;52.964;10.540;2024-02-14T17:27:30;28.90;;;17.17;;
16101;SDS011;56411;52.964;10.540;2024-02-14T17:30:07;75.63;;;43.17;;
16101;SDS011;56411;52.964;10.540;2024-02-14T17:32:35;52.33;;;31.60;;
16101;SDS011;56411;52.964;10.540;2024-02-14T17:35:11;33.95;;;20.75;;
16101;SDS011;56411;52.964;10.540;2024-02-14T17:37:57;32.63;;;20.23;;
16101;SDS011;56411;52.964;10.540;2024-02-14T20:57:03;24.10;;;12.97;;
16101;SDS011;56411;52.964;10.540;2024-02-14T21:00:17;23.33;;;13.70;;
16101;SDS011;56411;52.964;10.540;2024-02-14T21:02:50;24.63;;;13.73;;
16101;SDS011;56411;52.964;10.540;2024-02-14T21:33:09;19.55;;;11.80;;
16101;SDS011;56411;52.964;10.540;2024-02-14T21:35:51;19.35;;;11.45;;
16101;SDS011;56411;52.964;10.540;2024-02-14T21:38:47;19.87;;;11.47;;
16101;SDS011;56411;52.964;10.540;2024-02-14T21:41:36;19.23;;;10.50;;
16101;SDS011;56411;52.964;10.540;2024-02-14T21:44:29;17.70;;;10.27;;
16101;SDS011;56411;52.964;10.540;2024-02-14T21:47:20;18.40;;;9.77;;
16101;SDS011;56411;52.964;10.540;2024-02-14T22:07:25;15.87;;;8.53;;
16101;SDS011;56411;52.964;10.540;2024-02-14T22:17:14;15.38;;;8.15;;
16101;SDS011;56411;52.964;10.540;2024-02-14T23:20:54;16.83;;;9.30;;
